Time;durP1;ratioP1;P1;durP2;ratioP2;P2;SDS_P1;SDS_P2;PMS_P1;PMS_P2;Temp;Humidity;BMP_temperature;BMP_pressure;BME280_temperature;BME280_humidity;BME280_pressure;Samples;Min_cycle;Max_cycle;Signal;HPM_P1;HPM_P2
2022/08/09 00:02:30;;;;;;;4.17;0.93;;;;;;;19.73;55.95;100894.09;4987615;28;20481;-52
2022/08/09 00:04:57;;;;;;;4.23;0.70;;;;;;;19.66;56.31;100881.91;4985305;28;20474;-52
2022/08/09 00:07:43;;;;;;;0.87;0.60;;;;;;;19.94;55.42;100888.44;4987580;28;20443;-52
2022/08/09 00:10:11;;;;;;;0.63;0.50;;;;;;;19.69;56.07;100880.88;4988031;28;20493;-52
2022/08/09 00:12:43;;;;;;;24.53;0.80;;;;;;;19.63;56.25;100882.09;4981373;28;20446;-51
2022/08/09 00:15:11;;;;;;;0.60;0.40;;;;;;;19.68;55.70;100874.59;4982077;28;20884;-52
2022/08/09 00:17:40;;;;;;;1.00;0.73;;;;;;;19.46;56.97;100879.41;4985700;28;20478;-51
2022/08/09 00:20:26;;;;;;;6.33;0.50;;;;;;;19.32;57.34;100873.94;4987374;28;20968;-52
2022/08/09 00:22:56;;;;;;;0.80;0.70;;;;;;;19.46;57.24;100871.34;4986183;28;20537;-52
2022/08/09 00:25:33;;;;;;;0.90;0.50;;;;;;;18.97;58.10;100878.56;4987418;28;20466;-52
2022/08/09 00:28:00;;;;;;;0.60;0.60;;;;;;;19.12;58.23;100886.69;4987412;28;20548;-52
2022/08/09 00:30:29;;;;;;;1.30;1.10;;;;;;;19.05;57.92;100871.81;4981324;28;20493;-52
2022/08/09 00:32:56;;;;;;;0.63;0.40;;;;;;;18.84;58.57;100871.13;4993240;28;20453;-52
2022/08/09 00:35:23;;;;;;;1.00;0.87;;;;;;;18.81;58.87;100873.13;4981361;28;20463;-52
2022/08/09 00:37:50;;;;;;;2.07;0.90;;;;;;;18.85;58.87;100867.50;4980614;28;20470;-52
2022/08/09 00:40:16;;;;;;;2.63;0.90;;;;;;;18.91;58.94;100863.59;4986616;28;20446;-53
2022/08/09 00:42:45;;;;;;;0.90;0.60;;;;;;;18.75;59.77;100868.06;4987218;28;20533;-52
2022/08/09 00:45:31;;;;;;;0.70;0.60;;;;;;;18.82;59.70;100870.34;4984232;28;20823;-52
2022/08/09 00:48:02;;;;;;;0.63;0.50;;;;;;;18.71;60.08;100872.75;4989292;28;20581;-52
2022/08/09 00:50:29;;;;;;;0.80;0.70;;;;;;;18.71;59.89;100871.88;4996676;28;21056;-52
2022/08/09 00:52:56;;;;;;;1.20;0.60;;;;;;;18.45;60.54;100879.47;4989636;28;21008;-52
2022/08/09 00:55:23;;;;;;;0.60;0.50;;;;;;;18.43;60.15;100873.28;4985718;28;20462;-51
2022/08/09 00:58:10;;;;;;;4.30;0.70;;;;;;;18.27;61.26;100873.22;5004484;28;20464;-52
2022/08/09 01:00:42;;;;;;;0.70;0.70;;;;;;;18.48;59.95;100878.41;4980227;28;20446;-51
2022/08/09 01:03:23;;;;;;;0.60;0.50;;;;;;;18.54;60.41;100867.34;4984858;28;20875;-51
2022/08/09 01:06:24;;;;;;;7.70;0.83;;;;;;;18.37;61.04;100870.94;4987518;28;20450;-51
2022/08/09 01:09:23;;;;;;;0.90;0.70;;;;;;;18.25;61.87;100872.41;4986420;28;21022;-52
2022/08/09 01:12:16;;;;;;;1.90;0.80;;;;;;;18.36;61.06;100871.84;4986685;28;20449;-52
2022/08/09 01:15:08;;;;;;;0.60;0.40;;;;;;;18.45;60.88;100870.50;4984514;28;20959;-52
2022/08/09 01:17:48;;;;;;;0.70;0.50;;;;;;;18.39;60.97;100865.47;4982521;28;20453;-51
2022/08/09 01:20:32;;;;;;;0.60;0.50;;;;;;;18.21;61.19;100868.13;4980068;28;20449;-51
2022/08/09 01:23:04;;;;;;;0.67;0.53;;;;;;;18.18;61.49;100862.91;4980926;28;20534;-52
2022/08/09 01:26:04;;;;;;;4.93;1.20;;;;;;;18.16;61.94;100870.19;4982646;28;20465;-52
2022/08/09 01:28:34;;;;;;;0.87;0.50;;;;;;;17.94;62.97;100872.19;4979920;28;20449;-52
2022/08/09 01:31:09;;;;;;;1.20;0.70;;;;;;;18.05;62.65;100870.72;4981224;28;20454;-51
2022/08/09 01:33:58;;;;;;;0.73;0.67;;;;;;;18.08;62.24;100866.13;4981841;28;20473;-52
2022/08/09 01:36:27;;;;;;;1.20;1.07;;;;;;;17.83;62.56;100863.81;4980042;28;20552;-51
2022/08/09 01:38:55;;;;;;;0.60;0.50;;;;;;;17.71;63.20;100881.41;4983319;28;20456;-51
2022/08/09 01:41:28;;;;;;;0.60;0.50;;;;;;;17.83;63.52;100869.19;4986484;28;20885;-51
2022/08/09 01:43:59;;;;;;;4.20;1.40;;;;;;;17.87;63.22;100877.03;4984339;28;20481;-52
2022/08/09 01:46:31;;;;;;;0.87;0.87;;;;;;;17.62;63.86;100877.31;4987071;28;20453;-52
2022/08/09 01:49:03;;;;;;;5.57;1.13;;;;;;;17.62;64.08;100877.31;4980259;28;20486;-51
2022/08/09 01:51:38;;;;;;;1.00;0.70;;;;;;;17.58;63.77;100870.34;4981064;28;20445;-52
2022/08/09 01:54:09;;;;;;;3.63;1.23;;;;;;;17.41;64.85;100876.53;4979579;28;20470;-51
2022/08/09 01:56:39;;;;;;;1.20;0.90;;;;;;;17.38;65.06;100876.66;4997305;28;20464;-52
2022/08/09 01:59:09;;;;;;;0.80;0.50;;;;;;;17.37;64.87;100874.91;4994139;28;20953;-52
2022/08/09 02:01:46;;;;;;;0.90;0.63;;;;;;;17.13;65.49;100873.38;4983684;28;20448;-52
2022/08/09 02:04:28;;;;;;;0.80;0.80;;;;;;;17.22;65.05;100877.47;4979372;28;20474;-51
2022/08/09 02:07:15;;;;;;;0.80;0.80;;;;;;;17.15;65.16;100868.81;4979707;28;20932;-52
2022/08/09 02:10:10;;;;;;;1.10;0.60;;;;;;;17.27;65.01;100879.00;4985446;28;20481;-51
2022/08/09 02:12:37;;;;;;;0.70;0.70;;;;;;;17.10;65.51;100884.25;4986055;28;20882;-51
2022/08/09 02:15:07;;;;;;;2.23;0.73;;;;;;;17.24;65.17;100879.13;4986572;28;20469;-52
2022/08/09 02:17:43;;;;;;;2.43;0.60;;;;;;;16.95;66.10;100883.16;4984084;28;20474;-51
2022/08/09 02:20:31;;;;;;;1.13;0.70;;;;;;;16.98;66.07;100887.50;4986165;28;20480;-52
2022/08/09 02:23:08;;;;;;;1.83;0.80;;;;;;;17.07;65.75;100882.59;4985107;28;20619;-52
2022/08/09 02:25:39;;;;;;;8.30;1.00;;;;;;;16.86;66.30;100881.78;4985825;28;20490;-52
2022/08/09 02:28:20;;;;;;;1.77;0.90;;;;;;;16.86;66.53;100889.84;4985742;28;20457;-52
2022/08/09 02:30:57;;;;;;;7.03;0.83;;;;;;;16.88;66.75;100893.31;4982878;28;20519;-52
2022/08/09 02:33:27;;;;;;;0.60;0.40;;;;;;;16.92;66.84;100890.47;4979246;28;20974;-51
2022/08/09 02:36:25;;;;;;;0.90;0.80;;;;;;;16.75;66.71;100893.94;4979267;28;20465;-52
2022/08/09 02:38:54;;;;;;;0.60;0.40;;;;;;;16.93;66.54;100898.47;4983336;28;20454;-52
2022/08/09 02:41:27;;;;;;;3.70;0.83;;;;;;;16.69;67.45;100889.69;4986209;28;20500;-52
2022/08/09 02:44:07;;;;;;;0.87;0.77;;;;;;;16.69;67.44;100878.06;4983074;28;20480;-51
2022/08/09 02:46:57;;;;;;;0.53;0.40;;;;;;;16.59;68.20;100891.91;4992777;28;20464;-51
2022/08/09 02:49:25;;;;;;;4.67;0.93;;;;;;;16.69;67.96;100887.00;4985935;28;20523;-51
2022/08/09 02:52:11;;;;;;;0.63;0.63;;;;;;;16.52;68.41;100893.09;5003678;28;20452;-51
2022/08/09 02:54:39;;;;;;;6.83;1.47;;;;;;;16.44;68.81;100888.97;4982546;28;20469;-51
2022/08/09 02:57:21;;;;;;;0.93;0.80;;;;;;;16.51;69.04;100894.03;5004795;28;20543;-51
2022/08/09 02:59:50;;;;;;;1.10;0.90;;;;;;;16.66;67.96;100887.13;4987667;28;20979;-51
2022/08/09 03:02:38;;;;;;;7.00;1.27;;;;;;;16.66;68.37;100887.13;4989177;28;20454;-51
2022/08/09 03:05:25;;;;;;;1.37;0.83;;;;;;;16.58;68.94;100886.56;4988923;28;20446;-51
2022/08/09 03:07:52;;;;;;;1.03;0.70;;;;;;;16.59;68.92;100880.28;4983577;28;20473;-52
2022/08/09 03:10:21;;;;;;;1.03;0.63;;;;;;;16.66;68.69;100883.56;4982160;28;20501;-51
2022/08/09 03:12:49;;;;;;;1.20;0.80;;;;;;;16.47;69.22;100884.38;4987338;28;20455;-51
2022/08/09 03:15:19;;;;;;;10.40;1.43;;;;;;;16.64;68.95;100874.72;4991272;28;20553;-51
2022/08/09 03:17:48;;;;;;;1.17;1.07;;;;;;;16.50;69.04;100883.38;4986172;28;20929;-51
2022/08/09 03:20:25;;;;;;;4.63;1.60;;;;;;;16.47;69.46;100889.75;4988723;28;20476;-51
2022/08/09 03:22:56;;;;;;;2.30;0.90;;;;;;;16.51;69.17;100890.47;4987376;28;20452;-51
2022/08/09 03:25:41;;;;;;;1.70;0.73;;;;;;;16.19;70.40;100886.50;4983037;28;20905;-52
2022/08/09 03:28:25;;;;;;;1.10;0.77;;;;;;;16.23;70.19;100888.97;4982151;28;20480;-51
2022/08/09 03:30:54;;;;;;;1.13;1.00;;;;;;;16.06;70.20;100887.94;4984540;28;20987;-51
2022/08/09 03:33:22;;;;;;;2.60;0.50;;;;;;;16.04;70.28;100889.81;4988833;28;20545;-51
2022/08/09 03:35:52;;;;;;;14.47;1.27;;;;;;;15.92;70.44;100894.75;4986264;28;20449;-51
2022/08/09 03:38:40;;;;;;;1.50;0.97;;;;;;;15.96;70.56;100900.84;4987483;28;20453;-51
2022/08/09 03:41:13;;;;;;;0.70;0.57;;;;;;;15.92;71.19;100904.59;4988282;28;20532;-51
2022/08/09 03:43:43;;;;;;;0.67;0.50;;;;;;;15.72;71.46;100909.88;4984712;28;20473;-51
2022/08/09 03:46:30;;;;;;;0.80;0.63;;;;;;;15.76;71.55;100904.34;4989342;28;20457;-51
2022/08/09 03:48:59;;;;;;;1.23;0.80;;;;;;;15.78;71.63;100907.84;4982504;28;20454;-51
2022/08/09 03:51:34;;;;;;;1.33;0.90;;;;;;;15.72;71.76;100908.06;4981896;28;20442;-51
2022/08/09 03:54:23;;;;;;;0.70;0.50;;;;;;;15.70;71.91;100909.94;4981219;28;20979;-51
2022/08/09 03:56:56;;;;;;;0.90;0.70;;;;;;;15.72;71.46;100909.88;5001245;28;20946;-51
2022/08/09 03:59:23;;;;;;;0.70;0.57;;;;;;;15.55;71.92;100919.44;4991756;28;20474;-51
2022/08/09 04:02:09;;;;;;;1.17;1.03;;;;;;;15.41;72.61;100909.25;4987786;28;20461;-51
2022/08/09 04:04:36;;;;;;;0.70;0.60;;;;;;;15.41;72.75;100913.72;4982466;28;20548;-51
2022/08/09 04:07:04;;;;;;;1.00;0.63;;;;;;;15.27;73.69;100921.41;4981334;28;20458;-51
2022/08/09 04:09:31;;;;;;;1.80;0.90;;;;;;;15.20;74.10;100919.88;4986280;28;20586;-51
2022/08/09 04:12:22;;;;;;;4.80;1.37;;;;;;;15.19;73.59;100929.72;4987688;28;20475;-51
2022/08/09 04:15:09;;;;;;;1.00;0.83;;;;;;;15.34;73.75;100925.59;4988902;28;20473;-51
2022/08/09 04:17:38;;;;;;;3.33;1.20;;;;;;;15.23;73.93;100931.38;4985843;28;20963;-51
2022/08/09 04:20:10;;;;;;;2.10;0.83;;;;;;;15.48;73.33;100925.94;4987447;28;20479;-50
2022/08/09 04:22:39;;;;;;;0.80;0.73;;;;;;;15.38;73.04;100921.88;4984061;28;20998;-50
2022/08/09 04:25:10;;;;;;;1.67;1.47;;;;;;;15.30;74.41;100926.66;4980546;28;20477;-51
2022/08/09 04:27:41;;;;;;;1.10;0.73;;;;;;;15.36;74.28;100921.09;4983407;28;21039;-50
2022/08/09 04:30:18;;;;;;;1.50;1.33;;;;;;;15.25;74.77;100925.97;4987281;28;20494;-50
2022/08/09 04:32:49;;;;;;;1.50;1.13;;;;;;;15.41;73.74;100922.63;4987245;28;20445;-50
2022/08/09 04:35:16;;;;;;;6.27;0.97;;;;;;;16.20;70.41;100934.72;4980935;28;20899;-51
2022/08/09 04:37:48;;;;;;;1.03;0.93;;;;;;;16.17;70.44;100932.16;4980532;28;20450;-50
2022/08/09 04:40:15;;;;;;;1.43;1.20;;;;;;;16.06;71.17;100939.78;4986846;28;20456;-51
2022/08/09 04:43:01;;;;;;;0.80;0.70;;;;;;;15.88;72.66;100951.22;4987418;28;20462;-51
2022/08/09 04:45:29;;;;;;;0.87;0.70;;;;;;;15.86;72.81;100955.78;4984303;28;20457;-51
2022/08/09 04:47:58;;;;;;;13.63;1.00;;;;;;;15.69;73.36;100951.94;4989688;28;20537;-51
2022/08/09 04:50:29;;;;;;;7.90;0.90;;;;;;;15.86;73.03;100953.97;4996969;28;20530;-51
2022/08/09 04:52:59;;;;;;;5.30;0.93;;;;;;;15.92;73.49;100953.75;4989205;28;20546;-51
2022/08/09 04:55:26;;;;;;;0.73;0.67;;;;;;;16.73;70.37;100962.94;4985964;28;20453;-52
2022/08/09 04:58:05;;;;;;;0.83;0.83;;;;;;;17.68;66.39;100962.19;5003792;28;20464;-51
2022/08/09 05:00:35;;;;;;;17.17;0.80;;;;;;;18.29;63.76;100967.34;4980057;28;20916;-51
2022/08/09 05:03:03;;;;;;;0.70;0.60;;;;;;;19.04;60.59;100971.59;4986193;28;20880;-51
2022/08/09 05:05:50;;;;;;;1.00;0.80;;;;;;;19.58;58.97;100969.59;4986879;28;20459;-51
2022/08/09 05:08:33;;;;;;;11.47;1.47;;;;;;;19.80;58.84;100968.34;4986115;28;20492;-51
2022/08/09 05:11:00;;;;;;;3.93;1.10;;;;;;;20.35;56.94;100970.59;4980235;28;20556;-52
2022/08/09 05:13:28;;;;;;;0.70;0.50;;;;;;;20.40;56.19;100973.88;4980581;28;20474;-51
2022/08/09 05:15:58;;;;;;;1.07;0.70;;;;;;;20.35;57.06;100973.28;4982869;28;20799;-52
2022/08/09 05:18:28;;;;;;;1.20;1.10;;;;;;;20.46;55.85;100972.69;4979911;28;20458;-51
2022/08/09 05:21:15;;;;;;;2.33;0.93;;;;;;;20.73;55.23;100977.44;4983537;28;20458;-52
2022/08/09 05:23:50;;;;;;;1.23;1.03;;;;;;;20.95;54.87;100984.13;4985392;28;20516;-52
2022/08/09 05:26:27;;;;;;;1.17;1.07;;;;;;;21.10;54.71;100981.47;4986300;28;20603;-51
2022/08/09 05:29:12;;;;;;;1.57;0.60;;;;;;;21.40;53.86;100987.72;4982072;28;20455;-51
2022/08/09 05:31:47;;;;;;;1.10;1.00;;;;;;;21.29;53.91;100982.97;4979736;28;20493;-51
2022/08/09 05:34:27;;;;;;;2.37;1.30;;;;;;;21.54;53.59;100989.56;4981920;28;20556;-51
2022/08/09 05:37:03;;;;;;;6.73;1.10;;;;;;;21.68;53.19;100988.69;4986555;28;20498;-51
2022/08/09 05:39:37;;;;;;;1.07;0.97;;;;;;;21.79;52.64;100989.75;4986535;28;20473;-51
2022/08/09 05:42:13;;;;;;;1.63;1.53;;;;;;;21.90;51.96;100991.75;4981441;28;20450;-51
2022/08/09 05:44:51;;;;;;;3.13;1.37;;;;;;;22.07;51.51;100997.00;4979538;28;20473;-52
2022/08/09 05:47:19;;;;;;;2.30;0.83;;;;;;;22.02;51.83;101000.94;4982579;28;20450;-52
2022/08/09 05:49:48;;;;;;;0.80;0.77;;;;;;;22.21;51.31;100997.94;4986980;28;20446;-51
2022/08/09 05:52:35;;;;;;;0.70;0.53;;;;;;;22.31;51.08;101015.31;4994751;28;20461;-52
2022/08/09 05:55:05;;;;;;;0.80;0.80;;;;;;;22.39;50.50;101010.25;4982832;28;20523;-51
2022/08/09 05:57:34;;;;;;;3.83;1.47;;;;;;;22.47;50.84;101002.47;5001090;28;20461;-52
2022/08/09 06:00:21;;;;;;;1.73;1.10;;;;;;;22.69;50.17;101010.91;4980039;28;20461;-51
2022/08/09 06:02:47;;;;;;;1.47;1.20;;;;;;;22.53;50.81;101010.22;4978618;28;20525;-52
2022/08/09 06:05:19;;;;;;;3.13;1.13;;;;;;;22.64;50.93;100999.53;4979893;28;20498;-51
2022/08/09 06:08:06;;;;;;;1.87;1.77;;;;;;;22.80;50.45;101012.03;4982664;28;20458;-52
2022/08/09 06:10:37;;;;;;;3.23;1.00;;;;;;;23.09;49.87;101008.22;4986193;28;20490;-52
2022/08/09 06:13:08;;;;;;;2.20;1.13;;;;;;;23.22;49.44;101006.41;4983734;28;20935;-52
2022/08/09 06:15:45;;;;;;;1.10;1.00;;;;;;;23.39;49.55;101010.63;4980558;28;20540;-51
2022/08/09 06:18:16;;;;;;;6.13;1.00;;;;;;;23.35;49.52;101009.97;4979551;28;20450;-52
2022/08/09 06:20:42;;;;;;;3.07;1.27;;;;;;;23.15;50.29;101021.34;4988213;28;20450;-51
2022/08/09 06:23:25;;;;;;;1.10;0.70;;;;;;;23.39;50.25;101016.06;4990354;28;20464;-50
2022/08/09 06:26:12;;;;;;;3.13;2.00;;;;;;;23.33;50.39;101013.78;4988482;28;20457;-50
2022/08/09 06:28:39;;;;;;;0.70;0.63;;;;;;;23.51;51.10;101009.75;4990972;28;20450;-50
2022/08/09 06:31:09;;;;;;;1.43;1.33;;;;;;;23.37;50.53;101019.88;4988778;28;20493;-50
2022/08/09 06:33:35;;;;;;;1.00;0.80;;;;;;;23.32;51.39;101017.47;4983051;28;20485;-50
2022/08/09 06:36:08;;;;;;;0.77;0.70;;;;;;;23.57;51.37;101022.03;4983005;28;20453;-50
2022/08/09 06:38:34;;;;;;;4.40;1.53;;;;;;;23.44;51.26;101016.63;4989039;28;20450;-50
2022/08/09 06:41:04;;;;;;;15.13;1.80;;;;;;;23.34;52.03;101031.81;4989629;28;20453;-50
2022/08/09 06:43:45;;;;;;;1.93;0.97;;;;;;;23.59;51.80;101018.28;4985976;28;20868;-52
2022/08/09 06:46:11;;;;;;;5.63;1.40;;;;;;;23.40;52.51;101025.06;4990004;28;20453;-50
2022/08/09 06:48:58;;;;;;;2.80;1.10;;;;;;;23.00;54.06;101030.53;4983339;28;20470;-50
2022/08/09 06:51:26;;;;;;;1.47;1.07;;;;;;;22.94;54.00;101028.25;5008678;28;20497;-50
2022/08/09 06:53:53;;;;;;;2.20;1.67;;;;;;;23.21;53.88;101018.22;4983053;28;20478;-50
2022/08/09 06:56:20;;;;;;;0.93;0.83;;;;;;;23.29;53.84;101023.97;4998138;28;20460;-50
2022/08/09 06:58:56;;;;;;;0.90;0.70;;;;;;;23.22;54.20;101019.09;5000149;28;20795;-50
2022/08/09 07:01:42;;;;;;;1.33;1.20;;;;;;;24.17;52.65;101014.03;4985551;28;20796;-51
2022/08/09 07:04:29;;;;;;;0.70;0.50;;;;;;;23.85;52.48;101021.84;4989270;28;20470;-50
2022/08/09 07:06:55;;;;;;;2.93;1.53;;;;;;;24.41;49.31;101024.97;4989131;28;20454;-50
2022/08/09 07:09:27;;;;;;;2.83;0.70;;;;;;;24.58;44.22;101025.56;4989019;28;20863;-50
2022/08/09 07:12:13;;;;;;;3.43;1.40;;;;;;;24.90;43.73;101034.00;4988295;28;20505;-50
2022/08/09 07:14:45;;;;;;;0.80;0.80;;;;;;;24.96;43.27;101028.09;4986846;28;20553;-50
2022/08/09 07:17:17;;;;;;;3.17;1.13;;;;;;;24.98;42.81;101035.16;4990139;28;20451;-50
2022/08/09 07:19:44;;;;;;;1.10;1.00;;;;;;;24.94;42.85;101032.75;4988286;28;20453;-50
2022/08/09 07:22:17;;;;;;;2.40;0.70;;;;;;;25.28;42.89;101040.09;4983065;28;20454;-50
2022/08/09 07:24:53;;;;;;;0.70;0.70;;;;;;;25.03;42.78;101035.69;4983063;28;20485;-50
2022/08/09 07:27:20;;;;;;;1.00;0.93;;;;;;;25.26;43.06;101036.63;4987617;28;20466;-50
2022/08/09 07:30:01;;;;;;;0.80;0.60;;;;;;;24.95;43.05;101037.25;4989842;28;20477;-50
2022/08/09 07:32:28;;;;;;;1.40;1.30;;;;;;;24.97;43.07;101038.00;4984672;28;20804;-50
2022/08/09 07:35:08;;;;;;;7.20;0.90;;;;;;;25.27;42.05;101035.63;4981957;28;20466;-50
2022/08/09 07:37:39;;;;;;;1.23;1.13;;;;;;;25.03;42.60;101032.97;4983209;28;20490;-50
2022/08/09 07:40:15;;;;;;;0.73;0.60;;;;;;;25.38;42.24;101040.25;4988636;28;20451;-50
2022/08/09 07:42:52;;;;;;;1.63;1.13;;;;;;;25.47;41.72;101031.34;4988688;28;20564;-52
2022/08/09 07:45:24;;;;;;;0.70;0.60;;;;;;;25.51;42.00;101034.72;4983696;28;21045;-51
2022/08/09 07:48:11;;;;;;;0.70;0.53;;;;;;;25.80;41.09;101022.38;4990309;28;20516;-50
2022/08/09 07:50:54;;;;;;;6.10;1.77;;;;;;;25.72;40.44;101038.47;5003038;28;20595;-50
2022/08/09 07:53:40;;;;;;;1.20;1.10;;;;;;;25.69;40.26;101033.25;4983688;28;20481;-51
2022/08/09 07:56:27;;;;;;;0.77;0.50;;;;;;;25.77;40.26;101025.34;4987809;28;20468;-50
2022/08/09 07:58:56;;;;;;;4.10;0.83;;;;;;;25.87;39.90;101025.47;4998750;28;20816;-51
2022/08/09 08:01:25;;;;;;;1.03;0.50;;;;;;;26.16;39.59;101026.66;4982855;28;20489;-51
2022/08/09 08:04:01;;;;;;;6.90;0.83;;;;;;;26.05;39.52;101025.84;4981747;28;20497;-51
2022/08/09 08:06:29;;;;;;;2.63;1.23;;;;;;;26.02;39.07;101035.09;4985377;28;20541;-50
2022/08/09 08:08:58;;;;;;;2.00;1.10;;;;;;;25.68;39.34;101039.66;4988174;28;20546;-51
2022/08/09 08:11:29;;;;;;;0.70;0.50;;;;;;;25.94;39.94;101035.75;4985316;28;20497;-51
2022/08/09 08:14:16;;;;;;;1.80;0.80;;;;;;;25.99;39.44;101047.13;4981807;28;20469;-50
2022/08/09 08:16:43;;;;;;;0.93;0.80;;;;;;;25.97;39.66;101026.44;4993775;28;20979;-51
2022/08/09 08:19:26;;;;;;;3.60;0.80;;;;;;;26.05;40.25;101028.56;4984053;28;20449;-51
2022/08/09 08:21:56;;;;;;;1.07;0.97;;;;;;;26.39;39.65;101032.13;4981204;28;20500;-51
2022/08/09 08:24:24;;;;;;;0.80;0.70;;;;;;;26.43;39.53;101030.88;4984666;28;20547;-51
2022/08/09 08:27:05;;;;;;;0.73;0.73;;;;;;;26.37;39.45;101031.41;4987709;28;20457;-51
2022/08/09 08:29:42;;;;;;;2.50;0.80;;;;;;;26.50;39.93;101024.78;4987619;28;20492;-51
2022/08/09 08:32:16;;;;;;;0.97;0.87;;;;;;;26.22;40.35;101030.78;4982499;28;20533;-52
2022/08/09 08:34:54;;;;;;;18.63;1.97;;;;;;;26.49;40.47;101028.50;4980436;28;20476;-51
2022/08/09 08:37:25;;;;;;;1.10;0.90;;;;;;;27.04;39.92;101032.06;4983895;28;20573;-51
2022/08/09 08:40:08;;;;;;;1.73;1.13;;;;;;;26.63;39.88;101034.69;4987412;28;20932;-52
2022/08/09 08:42:36;;;;;;;1.30;1.00;;;;;;;26.72;40.00;101040.19;4986981;28;20453;-51
2022/08/09 08:45:04;;;;;;;4.10;0.70;;;;;;;26.77;40.28;101029.78;4980742;28;20539;-51
2022/08/09 08:47:39;;;;;;;3.23;0.83;;;;;;;27.22;39.60;101028.72;4992011;28;20451;-51
2022/08/09 08:50:13;;;;;;;0.80;0.70;;;;;;;27.08;39.38;101027.19;4983170;28;20442;-51
2022/08/09 08:52:41;;;;;;;1.03;0.57;;;;;;;27.28;39.27;101030.94;4980415;28;20497;-51
2022/08/09 08:55:26;;;;;;;1.03;0.97;;;;;;;26.62;39.56;101039.28;4981807;28;20506;-51
2022/08/09 08:57:54;;;;;;;1.13;1.03;;;;;;;26.95;39.86;101035.53;5003474;28;20464;-51
2022/08/09 09:00:23;;;;;;;1.00;0.83;;;;;;;26.92;39.86;101032.22;4980869;28;20457;-51
2022/08/09 09:02:57;;;;;;;1.80;1.47;;;;;;;26.89;39.73;101029.75;4981008;28;20449;-51
2022/08/09 09:05:37;;;;;;;4.90;1.03;;;;;;;27.14;39.04;101026.69;4980180;28;20447;-51
2022/08/09 09:08:26;;;;;;;6.73;1.27;;;;;;;27.59;38.80;101034.59;4981949;28;20454;-51
2022/08/09 09:11:00;;;;;;;1.10;0.83;;;;;;;27.47;38.75;101027.47;4987058;28;20827;-51
2022/08/09 09:13:28;;;;;;;1.10;0.50;;;;;;;27.61;38.88;101027.13;4986961;28;20465;-51
2022/08/09 09:16:14;;;;;;;2.33;1.10;;;;;;;27.69;38.43;101025.47;4984988;28;20460;-51
2022/08/09 09:18:41;;;;;;;0.80;0.70;;;;;;;27.67;38.74;101032.06;4980007;28;20458;-51
2022/08/09 09:21:17;;;;;;;8.10;1.63;;;;;;;27.81;38.17;101023.50;4982574;28;20450;-51
2022/08/09 09:23:52;;;;;;;1.07;0.80;;;;;;;27.99;38.28;101021.88;4986255;28;21015;-51
2022/08/09 09:26:24;;;;;;;2.33;0.60;;;;;;;27.71;38.42;101028.06;4986532;28;20446;-51
2022/08/09 09:28:51;;;;;;;8.03;1.20;;;;;;;28.07;37.61;101031.22;4980498;28;20503;-52
2022/08/09 09:31:35;;;;;;;1.30;0.80;;;;;;;28.06;38.23;101024.03;4979636;28;21050;-51
2022/08/09 09:34:22;;;;;;;4.97;0.90;;;;;;;27.76;38.15;101020.31;4981478;28;20477;-51
2022/08/09 09:36:49;;;;;;;0.90;0.90;;;;;;;27.78;37.70;101034.72;4986499;28;20509;-51
2022/08/09 09:39:22;;;;;;;13.83;1.53;;;;;;;28.27;37.25;101023.00;4986107;28;20994;-51
2022/08/09 09:42:22;;;;;;;1.37;1.07;;;;;;;28.41;36.84;101029.94;4982824;28;20450;-51
2022/08/09 09:44:58;;;;;;;2.60;0.60;;;;;;;28.45;37.52;101033.25;4979759;28;20466;-51
2022/08/09 09:47:26;;;;;;;9.63;1.27;;;;;;;28.07;36.98;101026.63;4985921;28;20453;-51
2022/08/09 09:49:56;;;;;;;2.07;1.17;;;;;;;28.41;37.38;101020.88;4986996;28;20451;-51
2022/08/09 09:52:52;;;;;;;1.23;1.13;;;;;;;28.28;36.33;101021.13;4993116;28;20908;-51
2022/08/09 09:55:22;;;;;;;1.53;0.90;;;;;;;28.36;35.60;101013.06;4986934;28;20500;-51
2022/08/09 09:57:59;;;;;;;18.17;0.80;;;;;;;28.44;35.82;101015.09;5006630;28;20471;-51
2022/08/09 10:00:51;;;;;;;3.07;0.80;;;;;;;28.50;36.43;101020.84;4983897;28;20547;-51
2022/08/09 10:03:38;;;;;;;0.70;0.40;;;;;;;28.46;35.47;101024.03;4986069;28;20542;-52
2022/08/09 10:06:05;;;;;;;1.20;1.03;;;;;;;28.48;35.02;101017.41;4990020;28;20597;-52
2022/08/09 10:08:32;;;;;;;0.90;0.80;;;;;;;28.99;34.80;101013.59;4989969;28;20977;-53
2022/08/09 10:11:24;;;;;;;1.20;1.10;;;;;;;28.62;34.73;101018.88;4986459;28;20523;-52
2022/08/09 10:14:25;;;;;;;9.50;1.63;;;;;;;28.89;34.79;101009.97;4983349;28;20480;-52
2022/08/09 10:16:58;;;;;;;0.80;0.57;;;;;;;29.24;34.21;101011.25;4993539;28;20449;-52
2022/08/09 10:19:45;;;;;;;4.60;0.77;;;;;;;29.23;34.12;101013.13;4989012;28;20815;-52
2022/08/09 10:22:27;;;;;;;1.10;0.90;;;;;;;29.26;34.07;101009.22;4983008;28;20450;-51
2022/08/09 10:25:07;;;;;;;1.67;0.80;;;;;;;29.58;33.95;101003.41;4983037;28;20504;-51
2022/08/09 10:27:38;;;;;;;1.90;1.10;;;;;;;29.06;32.68;101011.16;4986298;28;20450;-51
2022/08/09 10:30:23;;;;;;;1.60;0.90;;;;;;;28.99;32.78;100999.91;4989919;28;20446;-51
2022/08/09 10:33:10;;;;;;;1.10;1.00;;;;;;;29.28;32.28;101009.94;4989638;28;20493;-51
2022/08/09 10:35:58;;;;;;;2.80;1.30;;;;;;;29.34;32.15;100993.81;4988118;28;20449;-52
2022/08/09 10:38:26;;;;;;;1.20;0.97;;;;;;;29.39;32.33;100996.09;4982042;28;20540;-51
2022/08/09 10:41:14;;;;;;;3.23;0.80;;;;;;;29.58;31.99;101003.41;4983096;28;20442;-52
2022/08/09 10:43:45;;;;;;;0.90;0.50;;;;;;;29.81;31.26;100996.56;4987404;28;20967;-52
2022/08/09 10:46:28;;;;;;;1.17;1.07;;;;;;;30.12;31.39;100985.31;4993631;28;20449;-52
2022/08/09 10:49:05;;;;;;;0.73;0.50;;;;;;;29.63;31.54;100995.63;4984779;28;20818;-52
2022/08/09 10:51:49;;;;;;;3.37;0.70;;;;;;;29.37;30.97;100995.38;4983566;28;21018;-52
2022/08/09 10:54:22;;;;;;;0.80;0.70;;;;;;;29.48;30.86;100984.28;4982590;28;20477;-53
2022/08/09 10:57:06;;;;;;;0.80;0.50;;;;;;;29.76;29.65;100994.28;5003039;28;20454;-51
2022/08/09 10:59:34;;;;;;;0.73;0.70;;;;;;;29.93;30.92;100995.34;4991003;28;20450;-52
2022/08/09 11:02:39;;;;;;;1.00;0.90;;;;;;;29.81;30.40;100996.56;4989609;28;20441;-51
2022/08/09 11:05:26;;;;;;;1.07;0.97;;;;;;;30.07;30.74;100999.50;4989112;28;20804;-51
2022/08/09 11:07:56;;;;;;;1.20;0.90;;;;;;;29.73;30.70;100991.81;4984058;28;20935;-53
2022/08/09 11:10:47;;;;;;;0.80;0.67;;;;;;;30.01;30.92;100989.94;4993547;28;20453;-51
2022/08/09 11:13:22;;;;;;;1.30;1.10;;;;;;;30.02;30.70;100990.84;4988004;28;20521;-51
2022/08/09 11:16:35;;;;;;;0.80;0.80;;;;;;;29.95;30.78;100989.72;4986435;28;20461;-51
2022/08/09 11:19:04;;;;;;;0.70;0.67;;;;;;;30.42;30.53;100997.81;4982233;28;20473;-51
2022/08/09 11:21:52;;;;;;;0.70;0.63;;;;;;;30.23;31.36;100994.19;4981869;28;20500;-50
2022/08/09 11:25:04;;;;;;;0.73;0.60;;;;;;;30.14;31.09;100986.88;4984559;28;20984;-52
2022/08/09 11:27:37;;;;;;;2.83;1.17;;;;;;;30.53;30.12;100989.38;4985131;28;20456;-51
2022/08/09 11:30:26;;;;;;;2.13;1.20;;;;;;;30.35;29.99;101000.34;4982125;28;20449;-51
2022/08/09 11:33:06;;;;;;;0.70;0.60;;;;;;;30.49;30.21;100998.94;4981906;28;21039;-51
2022/08/09 11:35:56;;;;;;;3.30;0.93;;;;;;;30.49;30.39;100997.06;4986744;28;20458;-51
2022/08/09 11:38:29;;;;;;;7.20;0.80;;;;;;;30.37;30.40;100990.06;4988389;28;20837;-51
2022/08/09 11:41:12;;;;;;;1.00;0.90;;;;;;;30.40;30.00;100987.00;4988387;28;20844;-51
2022/08/09 11:43:41;;;;;;;1.03;0.80;;;;;;;30.24;29.49;100987.69;4983941;28;20469;-51
2022/08/09 11:46:08;;;;;;;1.10;1.00;;;;;;;30.05;30.06;100991.41;4988260;28;20935;-51
2022/08/09 11:48:55;;;;;;;0.60;0.40;;;;;;;30.16;30.18;100998.59;4985440;28;20451;-51
2022/08/09 11:51:24;;;;;;;1.03;0.87;;;;;;;30.03;30.42;100992.56;4989246;28;20458;-51
2022/08/09 11:54:16;;;;;;;0.70;0.60;;;;;;;30.44;30.52;100982.94;4988408;28;20477;-52
2022/08/09 11:57:38;;;;;;;0.67;0.50;;;;;;;30.72;30.51;100982.91;4995808;28;20463;-52
2022/08/09 12:00:26;;;;;;;0.80;0.80;;;;;;;30.53;30.14;100975.66;4987820;28;20453;-53
2022/08/09 12:02:55;;;;;;;0.73;0.50;;;;;;;30.63;30.57;100977.34;4981586;28;20446;-51
2022/08/09 12:05:33;;;;;;;16.07;1.03;;;;;;;30.78;29.63;100982.28;4981301;28;20454;-52
2022/08/09 12:08:08;;;;;;;0.73;0.70;;;;;;;30.52;30.50;100977.53;4986100;28;20450;-51